To NAV CANADA Home Page Login to a new session Search on AWWS site Feedback and Comments Disclaimer Vers la page française équivalente Tips FAQ What's new on the site To the Forecasts and Observations / NOTAM section To "File a Flight Plan" website Publications and other links Update of the User's profile FIC Telephone Numbers My Weather Data Folder Route Weather Data Regional Weather Data Local Weather Data To the Forecasts and Observations / NOTAM section
Request Generated 04/24/2014 at 22:45:49 UTC . Weather information available at that time is displayed.

METAR/TAF

QUEBEC/JEAN LESAGE INTL/QC    

METAR CYQB 242200Z 06009KT 15SM BKN052 05/01 A2990 RMK SC6 SLP128=
METAR CYQB 242100Z 01007KT 15SM BKN046 BKN080 08/M00 A2987 RMK SC6AC1
SLP117=
METAR CYQB 242000Z 35015G20KT 15SM OVC044 08/M00 A2986 RMK SC8
SLP113=

TAF CYQB 241738Z 2418/2518 33012G22KT P6SM BKN040
BECMG 2422/2424 32012KT
FM250500 33007KT P6SM SCT050
BECMG 2516/2518 23007KT
RMK NXT FCST BY 250000Z=
Your time UTC time
Weather data provided by Environment Canada and NAV CANADA